createdAt,value
2022-10-02T00:00:28.694Z,90.20
2022-10-02T00:03:01.469Z,90.20
2022-10-02T00:05:34.973Z,90.00
2022-10-02T00:08:07.814Z,90.10
2022-10-02T00:10:39.646Z,90.00
2022-10-02T00:13:12.162Z,89.70
2022-10-02T00:15:42.830Z,89.70
2022-10-02T00:18:14.310Z,89.70
2022-10-02T00:20:46.706Z,89.50
2022-10-02T00:23:20.570Z,89.20
2022-10-02T00:25:56.234Z,89.30
2022-10-02T00:28:28.847Z,89.20
2022-10-02T00:31:12.238Z,88.90
2022-10-02T00:33:50.272Z,88.80
2022-10-02T00:36:27.017Z,88.20
2022-10-02T00:39:06.698Z,88.40
2022-10-02T00:42:05.586Z,88.20
2022-10-02T00:44:50.450Z,88.20
2022-10-02T00:47:28.641Z,88.50
2022-10-02T00:50:07.027Z,88.10
2022-10-02T00:52:47.298Z,88.40
2022-10-02T00:55:33.355Z,87.90
2022-10-02T00:58:16.068Z,88.10
2022-10-02T01:00:56.556Z,88.00
2022-10-02T01:03:27.478Z,87.70
2022-10-02T01:05:55.234Z,87.80
2022-10-02T01:08:22.967Z,87.70
2022-10-02T01:10:53.262Z,87.80
2022-10-02T01:13:21.559Z,87.60
2022-10-02T01:15:52.768Z,87.70
2022-10-02T01:18:21.238Z,87.80
2022-10-02T01:20:51.099Z,87.70
2022-10-02T01:23:28.085Z,87.50
2022-10-02T01:25:58.452Z,87.80
2022-10-02T01:28:26.906Z,87.80
2022-10-02T01:30:58.318Z,87.80
2022-10-02T01:33:26.135Z,87.90
2022-10-02T01:35:53.870Z,88.00
2022-10-02T01:38:26.956Z,88.00
2022-10-02T01:40:54.687Z,88.00
2022-10-02T01:43:27.056Z,87.80
2022-10-02T01:46:08.542Z,87.60
2022-10-02T01:48:45.762Z,87.50
2022-10-02T01:51:26.565Z,87.80
2022-10-02T01:54:05.197Z,87.40
2022-10-02T01:56:43.045Z,87.50
2022-10-02T01:59:18.962Z,87.40
2022-10-02T02:02:00.508Z,87.70
2022-10-02T02:04:34.815Z,87.90
2022-10-02T02:07:17.557Z,87.90
2022-10-02T02:09:52.610Z,88.00
2022-10-02T02:12:22.821Z,88.00
2022-10-02T02:14:57.237Z,88.30
2022-10-02T02:17:29.106Z,88.10
2022-10-02T02:20:02.882Z,88.10
2022-10-02T02:22:34.262Z,87.90
2022-10-02T02:25:07.830Z,88.00
2022-10-02T02:27:40.267Z,88.30
2022-10-02T02:30:12.747Z,88.10
2022-10-02T02:32:44.838Z,88.20
2022-10-02T02:35:17.269Z,88.30
2022-10-02T02:37:52.828Z,88.00
2022-10-02T02:40:24.878Z,87.60
2022-10-02T02:43:03.250Z,87.80
2022-10-02T02:45:36.326Z,87.60
2022-10-02T02:48:10.308Z,87.70
2022-10-02T02:50:43.299Z,87.90
2022-10-02T02:53:15.219Z,87.80
2022-10-02T02:55:47.023Z,87.60
2022-10-02T02:58:18.838Z,87.70
2022-10-02T03:00:49.315Z,88.00
2022-10-02T03:03:17.145Z,88.00
2022-10-02T03:05:48.624Z,87.70
2022-10-02T03:08:21.157Z,87.90
2022-10-02T03:10:59.334Z,87.80
2022-10-02T03:13:38.156Z,87.50
2022-10-02T03:16:19.579Z,87.40
2022-10-02T03:19:01.143Z,87.80
2022-10-02T03:21:36.198Z,87.10
2022-10-02T03:24:11.694Z,86.60
2022-10-02T03:26:45.325Z,86.60
2022-10-02T03:29:18.750Z,86.40
2022-10-02T03:31:49.155Z,86.30
2022-10-02T03:34:18.779Z,86.40
2022-10-02T03:36:47.550Z,86.10
2022-10-02T03:39:30.717Z,86.30
2022-10-02T03:41:58.480Z,85.80
2022-10-02T03:44:26.298Z,86.50
2022-10-02T03:46:55.321Z,86.70
2022-10-02T03:49:23.028Z,87.50
2022-10-02T03:51:50.658Z,86.90
2022-10-02T03:54:21.164Z,88.00
2022-10-02T03:56:55.653Z,88.80
2022-10-02T03:59:37.508Z,89.30
2022-10-02T04:02:12.247Z,89.50
2022-10-02T04:04:48.079Z,90.20
2022-10-02T04:07:23.494Z,90.50
2022-10-02T04:09:58.379Z,91.00
2022-10-02T04:12:31.968Z,91.30
2022-10-02T04:15:07.862Z,91.00
2022-10-02T04:17:44.125Z,90.60
2022-10-02T04:20:17.874Z,91.60
2022-10-02T04:22:51.182Z,90.90
2022-10-02T04:25:21.772Z,90.90
2022-10-02T04:27:56.058Z,91.30
2022-10-02T04:30:24.057Z,91.70
2022-10-02T04:32:53.342Z,91.70
2022-10-02T04:35:30.134Z,91.80
2022-10-02T04:38:10.216Z,92.20
2022-10-02T04:40:54.567Z,91.90
2022-10-02T04:43:35.159Z,92.00
2022-10-02T04:46:15.770Z,92.00
2022-10-02T04:49:01.586Z,92.40
2022-10-02T04:51:43.864Z,92.80
2022-10-02T04:54:28.738Z,93.30
2022-10-02T04:57:12.143Z,93.80
2022-10-02T04:59:54.775Z,94.10
2022-10-02T05:02:35.477Z,94.40
2022-10-02T05:05:14.665Z,94.40
2022-10-02T05:07:57.899Z,94.60
2022-10-02T05:10:49.750Z,94.60
2022-10-02T05:13:33.783Z,94.70
2022-10-02T05:16:13.866Z,94.90
2022-10-02T05:18:54.890Z,95.40
2022-10-02T05:21:40.449Z,95.60
2022-10-02T05:24:21.060Z,95.80
2022-10-02T05:27:05.346Z,95.90
2022-10-02T05:29:54.058Z,96.10
2022-10-02T05:32:42.814Z,96.40
2022-10-02T05:35:34.883Z,96.30
2022-10-02T05:38:12.982Z,96.40
2022-10-02T05:40:47.658Z,96.30
2022-10-02T05:43:24.958Z,96.30
2022-10-02T05:45:56.334Z,96.20
2022-10-02T05:48:27.280Z,96.10
2022-10-02T05:51:02.754Z,96.20
2022-10-02T05:53:37.733Z,96.20
2022-10-02T05:56:13.015Z,96.30
2022-10-02T05:58:49.981Z,96.70
2022-10-02T06:01:24.067Z,96.80
2022-10-02T06:03:58.466Z,96.80
2022-10-02T06:06:33.156Z,96.80
2022-10-02T06:09:06.572Z,96.80
2022-10-02T06:11:40.233Z,96.80
2022-10-02T06:14:13.791Z,96.80
2022-10-02T06:16:46.954Z,96.80
2022-10-02T06:19:22.559Z,96.80
2022-10-02T06:21:56.498Z,96.80
2022-10-02T06:24:31.810Z,96.80
2022-10-02T06:27:05.083Z,96.80
2022-10-02T06:29:39.299Z,96.80
2022-10-02T06:32:18.749Z,96.80
2022-10-02T06:34:48.175Z,96.80
2022-10-02T06:37:36.325Z,96.80
2022-10-02T06:40:35.485Z,96.80
2022-10-02T06:43:13.139Z,96.80
2022-10-02T06:45:46.016Z,96.80
2022-10-02T06:48:25.254Z,96.80
2022-10-02T06:51:01.778Z,96.80
2022-10-02T06:53:47.074Z,96.80
2022-10-02T06:56:33.367Z,96.80
2022-10-02T06:59:11.188Z,96.80
2022-10-02T07:01:56.374Z,96.80
2022-10-02T07:04:42.063Z,96.80
2022-10-02T07:07:27.306Z,96.80
2022-10-02T07:10:09.355Z,96.80
2022-10-02T07:12:58.086Z,96.80
2022-10-02T07:15:52.995Z,96.80
2022-10-02T07:18:33.089Z,96.80
2022-10-02T07:21:10.131Z,96.80
2022-10-02T07:23:46.966Z,96.80
2022-10-02T07:26:24.727Z,96.80
2022-10-02T07:29:05.706Z,96.80
2022-10-02T07:31:46.910Z,96.80
2022-10-02T07:34:29.926Z,96.80
2022-10-02T07:37:09.935Z,96.80
2022-10-02T07:39:52.770Z,96.80
2022-10-02T07:42:35.169Z,96.80
2022-10-02T07:45:27.013Z,96.80
2022-10-02T07:48:18.758Z,96.80
2022-10-02T07:50:58.968Z,96.80
2022-10-02T07:53:38.858Z,96.80
2022-10-02T07:56:10.084Z,96.80
2022-10-02T07:58:41.194Z,96.80
2022-10-02T08:01:17.491Z,96.80
2022-10-02T08:03:49.670Z,96.80
2022-10-02T08:06:19.204Z,96.80
2022-10-02T08:08:52.712Z,96.80
2022-10-02T08:11:28.660Z,96.80
2022-10-02T08:14:00.186Z,96.80
2022-10-02T08:17:12.158Z,96.80
2022-10-02T08:19:46.747Z,96.80
2022-10-02T08:22:25.126Z,96.80
2022-10-02T08:24:57.550Z,96.80
2022-10-02T08:27:36.382Z,96.80
2022-10-02T08:30:07.125Z,96.80
2022-10-02T08:32:37.371Z,96.80
2022-10-02T08:35:14.084Z,96.80
2022-10-02T08:37:58.132Z,96.80
2022-10-02T08:41:00.450Z,96.80
2022-10-02T08:43:58.349Z,96.80
2022-10-02T08:46:58.441Z,96.80
2022-10-02T08:49:48.129Z,96.80
2022-10-02T08:52:46.293Z,96.80
2022-10-02T08:55:34.257Z,96.80
2022-10-02T08:58:24.037Z,96.80
2022-10-02T09:01:04.070Z,96.80
2022-10-02T09:04:01.248Z,96.80
2022-10-02T09:06:58.837Z,96.80
2022-10-02T09:09:55.726Z,96.80
2022-10-02T09:12:58.170Z,95.70
2022-10-02T09:15:47.921Z,93.60
2022-10-02T09:18:32.790Z,92.00
2022-10-02T09:21:16.048Z,91.30
2022-10-02T09:24:10.457Z,91.90
2022-10-02T09:27:02.317Z,92.80
2022-10-02T09:30:05.130Z,92.30
2022-10-02T09:33:00.140Z,92.20
2022-10-02T09:35:57.645Z,92.70
2022-10-02T09:38:49.409Z,92.60
2022-10-02T09:41:48.058Z,91.60
2022-10-02T09:44:46.563Z,91.40
2022-10-02T09:47:41.202Z,91.20
2022-10-02T09:50:42.744Z,90.80
2022-10-02T09:53:35.176Z,90.80
2022-10-02T09:56:27.722Z,90.70
2022-10-02T09:59:23.109Z,90.50
2022-10-02T10:02:15.882Z,90.60
2022-10-02T10:05:08.731Z,90.80
2022-10-02T10:07:57.712Z,91.40
2022-10-02T10:10:42.962Z,92.50
2022-10-02T10:13:36.032Z,93.30
2022-10-02T10:16:37.124Z,94.60
2022-10-02T10:19:33.586Z,94.50
2022-10-02T10:22:31.148Z,94.80
2022-10-02T10:25:23.522Z,95.30
2022-10-02T10:28:09.123Z,95.90
2022-10-02T10:31:05.732Z,96.50
2022-10-02T10:33:56.675Z,96.80
2022-10-02T10:37:05.310Z,96.80
2022-10-02T10:39:52.006Z,96.80
2022-10-02T10:43:03.449Z,96.80
2022-10-02T10:45:46.009Z,96.80
2022-10-02T10:48:29.146Z,96.80
2022-10-02T10:51:14.149Z,96.10
2022-10-02T10:54:12.014Z,95.90
2022-10-02T10:56:45.967Z,95.30
2022-10-02T10:59:42.236Z,94.70
2022-10-02T11:02:35.772Z,94.60
2022-10-02T11:05:19.038Z,94.60
2022-10-02T11:08:06.194Z,95.00
2022-10-02T11:10:48.482Z,95.50
2022-10-02T11:13:30.245Z,95.30
2022-10-02T11:16:14.069Z,95.40
2022-10-02T11:18:59.900Z,95.50
2022-10-02T11:21:49.252Z,95.80
2022-10-02T11:24:38.372Z,95.90
2022-10-02T11:27:26.555Z,96.10
2022-10-02T11:30:20.423Z,96.20
2022-10-02T11:33:11.630Z,96.70
2022-10-02T11:35:50.486Z,96.70
2022-10-02T11:38:42.090Z,96.40
2022-10-02T11:41:23.826Z,96.50
2022-10-02T11:44:11.866Z,96.60
2022-10-02T11:47:00.862Z,96.80
2022-10-02T11:49:59.005Z,96.80
2022-10-02T11:52:48.648Z,96.80
2022-10-02T11:55:33.887Z,96.80
2022-10-02T11:58:15.262Z,96.80
2022-10-02T12:01:05.578Z,96.80
2022-10-02T12:11:34.368Z,96.80
2022-10-02T12:14:16.357Z,96.80
2022-10-02T12:16:57.902Z,96.80
2022-10-02T12:20:03.314Z,96.80
2022-10-02T12:22:51.413Z,96.80
2022-10-02T12:25:41.946Z,96.80
2022-10-02T12:28:16.946Z,96.80
2022-10-02T12:30:50.874Z,96.80
2022-10-02T12:33:29.354Z,96.80
2022-10-02T12:36:12.826Z,96.80
2022-10-02T12:38:55.402Z,96.80
2022-10-02T12:41:52.564Z,96.80
2022-10-02T12:44:36.630Z,96.80
2022-10-02T12:47:20.901Z,96.80
2022-10-02T12:49:58.286Z,96.80
2022-10-02T12:52:56.293Z,96.80
2022-10-02T12:55:48.674Z,96.70
2022-10-02T12:58:25.225Z,96.80
2022-10-02T13:01:26.412Z,96.80
2022-10-02T13:04:19.041Z,96.80
2022-10-02T13:07:06.141Z,96.80
2022-10-02T13:09:44.028Z,96.80
2022-10-02T13:12:27.726Z,96.80
2022-10-02T13:15:19.494Z,96.80
2022-10-02T13:17:58.682Z,96.80
2022-10-02T13:20:38.727Z,96.80
2022-10-02T13:23:18.465Z,96.80
2022-10-02T13:25:59.593Z,96.80
2022-10-02T13:28:41.054Z,96.80
2022-10-02T13:31:18.207Z,96.70
2022-10-02T13:34:01.264Z,96.80
2022-10-02T13:36:38.850Z,96.80
2022-10-02T13:39:22.546Z,96.80
2022-10-02T13:42:14.450Z,96.80
2022-10-02T13:44:50.946Z,96.80
2022-10-02T13:47:31.605Z,96.80
2022-10-02T13:50:19.262Z,96.80
2022-10-02T13:53:05.417Z,96.80
2022-10-02T13:55:35.607Z,96.70
2022-10-02T13:58:25.968Z,96.70
2022-10-02T14:01:10.455Z,96.70
2022-10-02T14:03:57.155Z,96.80
2022-10-02T14:06:31.206Z,96.80
2022-10-02T14:09:13.142Z,96.80
2022-10-02T14:11:56.273Z,96.70
2022-10-02T14:14:39.802Z,96.80
2022-10-02T14:17:19.576Z,96.80
2022-10-02T14:20:11.182Z,96.80
2022-10-02T14:22:52.464Z,96.80
2022-10-02T14:25:32.634Z,96.80
2022-10-02T14:28:23.437Z,96.80
2022-10-02T14:31:02.238Z,96.80
2022-10-02T14:33:45.613Z,96.80
2022-10-02T14:36:22.404Z,96.80
2022-10-02T14:39:02.036Z,96.80
2022-10-02T14:41:49.158Z,96.80
2022-10-02T14:44:38.102Z,96.80
2022-10-02T14:47:22.005Z,96.80
2022-10-02T14:50:03.568Z,96.80
2022-10-02T14:52:51.533Z,96.80
2022-10-02T14:55:36.209Z,96.80
2022-10-02T14:58:20.594Z,96.80
2022-10-02T15:01:15.571Z,96.80
2022-10-02T15:04:06.576Z,96.80
2022-10-02T15:06:48.426Z,96.80
2022-10-02T15:09:20.974Z,96.80
2022-10-02T15:12:00.431Z,96.80
2022-10-02T15:14:38.955Z,96.80
2022-10-02T15:17:26.390Z,96.80
2022-10-02T15:20:03.986Z,96.80
2022-10-02T15:22:37.814Z,96.80
2022-10-02T15:25:18.400Z,96.80
2022-10-02T15:28:18.182Z,96.80
2022-10-02T15:31:00.079Z,96.80
2022-10-02T15:33:36.058Z,96.80
2022-10-02T15:36:28.280Z,96.80
2022-10-02T15:39:14.116Z,96.80
2022-10-02T15:41:48.057Z,96.80
2022-10-02T15:44:34.722Z,96.80
2022-10-02T15:47:15.354Z,96.80
2022-10-02T15:50:03.966Z,96.80
2022-10-02T15:52:45.570Z,96.80
2022-10-02T15:55:22.294Z,96.80
2022-10-02T15:57:59.746Z,96.80
2022-10-02T16:00:29.721Z,96.80
2022-10-02T16:03:03.697Z,96.80
2022-10-02T16:05:46.377Z,96.80
2022-10-02T16:08:35.398Z,96.80
2022-10-02T16:11:26.002Z,96.80
2022-10-02T16:14:02.111Z,96.80
2022-10-02T16:17:04.990Z,96.80
2022-10-02T16:19:46.037Z,96.80
2022-10-02T16:22:30.231Z,96.80
2022-10-02T16:25:14.433Z,96.80
2022-10-02T16:27:52.835Z,96.80
2022-10-02T16:30:22.520Z,96.80
2022-10-02T16:33:04.995Z,96.80
2022-10-02T16:36:02.763Z,96.80
2022-10-02T16:38:45.022Z,96.80
2022-10-02T16:41:24.623Z,96.80
2022-10-02T16:44:07.959Z,96.80
2022-10-02T16:46:41.102Z,96.80
2022-10-02T16:49:25.171Z,96.80
2022-10-02T16:52:01.784Z,96.80
2022-10-02T16:54:44.833Z,96.80
2022-10-02T16:57:25.553Z,96.80
2022-10-02T17:00:00.891Z,96.80
2022-10-02T17:02:42.612Z,96.80
2022-10-02T17:05:24.544Z,96.80
2022-10-02T17:08:02.275Z,96.80
2022-10-02T17:10:38.505Z,96.80
2022-10-02T17:13:19.869Z,96.80
2022-10-02T17:15:53.157Z,96.80
2022-10-02T17:18:29.446Z,96.80
2022-10-02T17:21:01.966Z,96.80
2022-10-02T17:23:37.962Z,96.80
2022-10-02T17:26:09.709Z,96.80
2022-10-02T17:28:45.889Z,96.80
2022-10-02T17:31:25.267Z,96.80
2022-10-02T17:33:56.405Z,96.80
2022-10-02T17:36:32.626Z,96.80
2022-10-02T17:39:14.604Z,96.80
2022-10-02T17:41:50.136Z,96.80
2022-10-02T17:44:26.366Z,96.80
2022-10-02T17:47:17.539Z,96.80
2022-10-02T17:49:59.934Z,96.80
2022-10-02T17:52:51.071Z,96.80
2022-10-02T17:55:48.130Z,96.80
2022-10-02T17:58:24.875Z,96.80
2022-10-02T18:01:06.726Z,96.80
2022-10-02T18:03:48.910Z,96.80
2022-10-02T18:06:26.202Z,96.80
2022-10-02T18:09:10.622Z,96.80
2022-10-02T18:11:57.281Z,96.80
2022-10-02T18:14:48.125Z,96.80
2022-10-02T18:17:25.424Z,96.80
2022-10-02T18:19:59.267Z,96.80
2022-10-02T18:22:44.172Z,96.80
2022-10-02T18:25:32.989Z,96.80
2022-10-02T18:28:16.367Z,96.80
2022-10-02T18:30:50.023Z,96.80
2022-10-02T18:33:34.038Z,96.80
2022-10-02T18:36:18.832Z,96.80
2022-10-02T18:38:58.381Z,96.80
2022-10-02T18:41:50.158Z,96.80
2022-10-02T18:44:33.399Z,96.80
2022-10-02T18:47:10.329Z,96.80
2022-10-02T18:49:51.506Z,96.80
2022-10-02T18:52:34.238Z,96.80
2022-10-02T18:55:24.757Z,96.80
2022-10-02T18:58:07.468Z,96.80
2022-10-02T19:01:01.157Z,96.80
2022-10-02T19:03:37.362Z,96.80
2022-10-02T19:06:16.146Z,96.80
2022-10-02T19:09:02.759Z,96.80
2022-10-02T19:11:33.153Z,96.80
2022-10-02T19:14:13.301Z,96.80
2022-10-02T19:16:57.008Z,96.80
2022-10-02T19:19:25.400Z,96.80
2022-10-02T19:21:59.253Z,96.80
2022-10-02T19:24:31.568Z,96.80
2022-10-02T19:27:04.802Z,96.80
2022-10-02T19:29:37.928Z,96.80
2022-10-02T19:32:14.541Z,96.80
2022-10-02T19:34:44.008Z,96.80
2022-10-02T19:37:17.753Z,96.80
2022-10-02T19:39:52.785Z,96.80
2022-10-02T19:42:24.689Z,96.80
2022-10-02T19:44:55.952Z,96.80
2022-10-02T19:47:29.249Z,96.80
2022-10-02T19:49:59.872Z,96.80
2022-10-02T19:52:35.828Z,96.80
2022-10-02T19:55:07.090Z,96.80
2022-10-02T19:57:39.974Z,96.80
2022-10-02T20:00:16.126Z,96.80
2022-10-02T20:02:49.074Z,96.80
2022-10-02T20:05:25.005Z,96.80
2022-10-02T20:08:00.948Z,96.80
2022-10-02T20:10:35.914Z,96.80
2022-10-02T20:13:20.422Z,96.80
2022-10-02T20:16:08.356Z,96.80
2022-10-02T20:18:37.088Z,96.80
2022-10-02T20:21:10.009Z,96.80
2022-10-02T20:23:43.612Z,96.80
2022-10-02T20:26:25.959Z,96.80
2022-10-02T20:28:58.605Z,96.80
2022-10-02T20:31:40.710Z,96.80
2022-10-02T20:34:18.110Z,96.80
2022-10-02T20:36:53.385Z,96.80
2022-10-02T20:39:27.097Z,96.80
2022-10-02T20:41:58.782Z,96.80
2022-10-02T20:44:29.167Z,96.80
2022-10-02T20:47:27.736Z,96.80
2022-10-02T20:50:20.291Z,96.80
2022-10-02T20:53:18.369Z,96.80
2022-10-02T20:55:53.417Z,96.80
2022-10-02T20:58:38.218Z,96.80
2022-10-02T21:01:18.086Z,96.80
2022-10-02T21:06:50.441Z,96.80
2022-10-02T21:09:43.270Z,96.80
2022-10-02T21:12:36.783Z,96.80
2022-10-02T21:15:32.905Z,96.80
2022-10-02T21:18:21.529Z,96.80
2022-10-02T21:21:14.009Z,96.80
2022-10-02T21:24:05.295Z,96.80
2022-10-02T21:26:55.140Z,96.80
2022-10-02T21:29:38.966Z,96.80
2022-10-02T21:32:28.737Z,96.80
2022-10-02T21:35:08.727Z,96.80
2022-10-02T21:37:47.701Z,96.80
2022-10-02T21:40:53.290Z,96.80
2022-10-02T21:43:46.908Z,96.80
2022-10-02T21:46:43.720Z,96.80
2022-10-02T21:49:41.785Z,96.80
2022-10-02T21:52:32.970Z,96.80
2022-10-02T21:55:32.141Z,96.80
2022-10-02T21:58:27.907Z,96.80
2022-10-02T22:01:21.875Z,96.80
2022-10-02T22:04:11.312Z,96.80
2022-10-02T22:06:54.481Z,96.80
2022-10-02T22:09:34.554Z,96.80
2022-10-02T22:12:17.789Z,96.80
2022-10-02T22:14:50.422Z,96.80
2022-10-02T22:17:27.494Z,96.80
2022-10-02T22:20:18.940Z,96.80
2022-10-02T22:23:00.932Z,96.80
2022-10-02T22:25:45.682Z,96.80
2022-10-02T22:28:24.726Z,96.80
2022-10-02T22:31:15.035Z,96.80
2022-10-02T22:33:55.056Z,96.80
2022-10-02T22:36:40.518Z,96.80
2022-10-02T22:39:16.057Z,96.80
2022-10-02T22:41:52.736Z,96.80
2022-10-02T22:44:25.289Z,96.80
2022-10-02T22:46:58.562Z,96.80
2022-10-02T22:49:33.245Z,96.80
2022-10-02T22:52:11.061Z,96.80
2022-10-02T22:54:46.245Z,96.80
2022-10-02T22:57:22.401Z,96.80
2022-10-02T22:59:55.553Z,96.80
2022-10-02T23:02:28.919Z,96.80
2022-10-02T23:05:05.767Z,96.80
2022-10-02T23:07:41.034Z,96.80
2022-10-02T23:10:27.558Z,96.80
2022-10-02T23:13:03.199Z,96.80
2022-10-02T23:15:41.881Z,96.80
2022-10-02T23:18:23.025Z,96.80
2022-10-02T23:21:02.243Z,96.80
2022-10-02T23:23:36.495Z,96.80
2022-10-02T23:26:09.993Z,96.80
2022-10-02T23:28:45.678Z,96.80
2022-10-02T23:31:21.608Z,96.80
2022-10-02T23:33:57.784Z,96.80
2022-10-02T23:36:30.985Z,96.80
2022-10-02T23:39:05.986Z,96.80
2022-10-02T23:41:37.284Z,96.80
2022-10-02T23:44:17.329Z,96.80
2022-10-02T23:47:02.624Z,96.80
2022-10-02T23:49:35.260Z,96.80
2022-10-02T23:52:20.758Z,96.80
2022-10-02T23:55:03.559Z,96.80
2022-10-02T23:57:45.520Z,96.80
